Time;durP1;ratioP1;P1;durP2;ratioP2;P2;SDS_P1;SDS_P2;PMS_P1;PMS_P2;Temp;Humidity;BMP_temperature;BMP_pressure;BME280_temperature;BME280_humidity;BME280_pressure;Samples;Min_cycle;Max_cycle;Signal;HPM_P1;HPM_P2
2023/04/05 00:02:05;;;;;;;0.93;0.87;;;;;;;2.59;46.65;102309.53;4994667;28;99306;-50
2023/04/05 00:04:33;;;;;;;1.03;0.93;;;;;;;2.62;46.72;102310.69;4998380;28;96975;-49
2023/04/05 00:07:01;;;;;;;0.90;0.80;;;;;;;2.60;46.50;102302.91;4995463;28;97062;-50
2023/04/05 00:09:27;;;;;;;1.50;0.93;;;;;;;2.59;46.75;102311.47;4994050;28;96938;-51
2023/04/05 00:11:53;;;;;;;0.80;0.70;;;;;;;2.56;46.53;102304.09;4994510;28;97652;-51
2023/04/05 00:14:18;;;;;;;0.80;0.80;;;;;;;2.52;46.58;102306.06;4997631;28;97264;-48
2023/04/05 00:16:43;;;;;;;0.80;0.80;;;;;;;2.49;46.75;102304.91;4994098;28;97167;-51
2023/04/05 00:19:11;;;;;;;0.83;0.83;;;;;;;2.49;46.75;102293.28;4993291;28;97060;-51
2023/04/05 00:21:38;;;;;;;1.20;0.80;;;;;;;2.49;46.74;102301.44;4994955;28;97799;-48
2023/04/05 00:24:04;;;;;;;0.97;0.90;;;;;;;2.46;46.79;102303.00;4996153;28;96738;-51
2023/04/05 00:26:29;;;;;;;1.37;1.27;;;;;;;2.44;46.84;102302.63;4996410;28;97048;-54
2023/04/05 00:28:55;;;;;;;1.30;0.97;;;;;;;2.33;46.91;102303.84;5002291;28;99129;-50
2023/04/05 00:31:20;;;;;;;1.23;1.10;;;;;;;2.26;46.97;102301.94;4995952;28;97400;-48
2023/04/05 00:33:45;;;;;;;2.50;1.17;;;;;;;2.19;47.08;102308.16;4993355;28;97326;-51
2023/04/05 00:36:13;;;;;;;1.60;1.50;;;;;;;2.12;47.32;102300.03;4996322;28;96786;-50
2023/04/05 00:38:40;;;;;;;2.40;1.50;;;;;;;2.08;47.58;102295.78;4992381;28;97487;-54
2023/04/05 00:41:05;;;;;;;2.50;1.40;;;;;;;2.04;47.29;102301.22;4990930;28;97092;-52
2023/04/05 00:43:31;;;;;;;1.30;1.03;;;;;;;1.99;47.38;102298.91;4992296;28;97152;-49
2023/04/05 00:45:56;;;;;;;2.40;0.93;;;;;;;1.99;47.73;102295.41;4995395;28;96844;-49
2023/04/05 00:48:22;;;;;;;2.50;1.20;;;;;;;2.03;47.75;102291.53;4994438;28;97346;-50
2023/04/05 00:50:49;;;;;;;2.10;0.90;;;;;;;2.07;47.63;102300.47;4995652;28;97249;-50
2023/04/05 00:53:17;;;;;;;1.40;0.90;;;;;;;2.07;47.58;102286.88;4995726;28;96911;-49
2023/04/05 00:55:42;;;;;;;1.23;1.10;;;;;;;2.12;47.70;102285.69;4992213;28;96813;-49
2023/04/05 00:58:09;;;;;;;2.07;0.80;;;;;;;2.14;47.58;102291.50;4994612;28;98045;-49
2023/04/05 01:00:38;;;;;;;1.67;0.83;;;;;;;2.16;47.42;102287.22;4997531;28;97237;-50
2023/04/05 01:03:05;;;;;;;0.83;0.83;;;;;;;2.13;47.69;102288.03;4993423;28;97395;-50
2023/04/05 01:05:45;;;;;;;1.17;0.60;;;;;;;2.12;48.15;102285.69;4955722;28;1187047;-48
2023/04/05 01:08:11;;;;;;;1.10;1.00;;;;;;;2.12;47.48;102280.25;4997171;28;97096;-52
2023/04/05 01:10:41;;;;;;;0.83;0.83;;;;;;;2.12;47.52;102278.31;4996942;28;97354;-49
2023/04/05 01:13:07;;;;;;;2.17;1.20;;;;;;;2.14;47.36;102275.22;4992746;28;96910;-52
2023/04/05 01:15:33;;;;;;;1.73;1.07;;;;;;;2.12;47.74;102275.59;4995827;28;96855;-49
2023/04/05 01:18:00;;;;;;;1.20;0.80;;;;;;;2.12;47.73;102278.31;4993758;28;97398;-50
2023/04/05 01:20:31;;;;;;;1.17;0.77;;;;;;;2.11;47.66;102276.00;4993986;28;97498;-50
2023/04/05 01:23:21;;;;;;;2.63;1.17;;;;;;;2.11;48.18;102276.00;4996080;28;97220;-49
2023/04/05 01:25:58;;;;;;;1.30;0.80;;;;;;;2.07;48.16;102278.75;4996743;28;97039;-51
2023/04/05 01:28:39;;;;;;;2.60;0.90;;;;;;;2.06;48.56;102281.84;4995832;28;97090;-51
2023/04/05 01:31:18;;;;;;;0.60;0.50;;;;;;;2.04;48.28;102284.16;4992544;28;97377;-49
2023/04/05 01:33:54;;;;;;;1.73;0.73;;;;;;;2.02;48.12;102283.78;4996327;28;97308;-50
2023/04/05 01:36:30;;;;;;;1.10;0.93;;;;;;;2.00;48.38;102278.75;4996693;28;97138;-49
2023/04/05 01:38:57;;;;;;;1.13;1.03;;;;;;;1.99;47.87;102281.84;4992490;28;97587;-51
2023/04/05 01:41:23;;;;;;;2.07;1.00;;;;;;;1.96;47.85;102271.81;4995163;28;97499;-52
2023/04/05 01:43:48;;;;;;;0.80;0.80;;;;;;;1.94;48.11;102274.91;4997553;28;97024;-49
2023/04/05 01:46:13;;;;;;;1.63;1.03;;;;;;;1.94;48.15;102266.00;4997872;28;97118;-51
2023/04/05 01:48:39;;;;;;;0.80;0.80;;;;;;;1.93;48.40;102270.63;4996355;28;104964;-50
2023/04/05 01:51:04;;;;;;;1.93;1.10;;;;;;;1.93;48.29;102272.56;4995410;28;97267;-50
2023/04/05 01:53:30;;;;;;;1.33;0.90;;;;;;;1.97;48.36;102260.53;4993285;28;97118;-52
2023/04/05 01:56:02;;;;;;;0.90;0.90;;;;;;;1.99;48.56;102260.13;4992094;28;96906;-51
2023/04/05 01:58:27;;;;;;;1.17;1.10;;;;;;;1.96;48.45;102256.28;4995561;28;97338;-50
2023/04/05 02:00:57;;;;;;;1.83;1.00;;;;;;;1.98;48.53;102264.03;4995087;28;97318;-49
2023/04/05 02:03:23;;;;;;;1.00;0.80;;;;;;;1.95;48.51;102264.81;4995662;28;97149;-51
2023/04/05 02:05:48;;;;;;;1.40;1.20;;;;;;;1.93;48.66;102261.72;4994081;28;96910;-50
2023/04/05 02:08:14;;;;;;;0.80;0.80;;;;;;;1.87;48.45;102266.00;4993816;28;97274;-49
2023/04/05 02:10:40;;;;;;;1.27;1.10;;;;;;;1.78;48.47;102269.13;4992916;28;97379;-51
2023/04/05 02:13:06;;;;;;;1.20;1.10;;;;;;;1.79;48.45;102262.53;4990269;28;97074;-49
2023/04/05 02:15:32;;;;;;;2.13;1.00;;;;;;;1.77;48.46;102256.72;4992764;28;97062;-49
2023/04/05 02:18:00;;;;;;;2.60;2.40;;;;;;;1.74;48.71;102259.47;4995340;28;97162;-50
2023/04/05 02:20:26;;;;;;;5.43;4.93;;;;;;;1.72;48.78;102253.66;4995310;28;97204;-50
2023/04/05 02:22:52;;;;;;;4.43;3.20;;;;;;;1.70;48.61;102254.06;4994063;28;97082;-48
2023/04/05 02:25:18;;;;;;;2.47;2.30;;;;;;;1.70;48.69;102253.28;4993672;28;97122;-50
2023/04/05 02:27:43;;;;;;;1.80;1.60;;;;;;;1.70;48.74;102256.78;4993749;28;96989;-49
2023/04/05 02:30:09;;;;;;;2.53;1.40;;;;;;;1.69;48.69;102246.28;4999171;28;96802;-52
2023/04/05 02:32:35;;;;;;;2.07;1.30;;;;;;;1.67;48.96;102245.91;4996075;28;97231;-49
2023/04/05 02:35:00;;;;;;;2.20;1.70;;;;;;;1.66;48.99;102244.38;4992749;28;96997;-48
2023/04/05 02:37:26;;;;;;;2.17;1.97;;;;;;;1.64;48.94;102252.13;4993017;28;98277;-49
2023/04/05 02:39:51;;;;;;;2.47;2.27;;;;;;;1.65;49.16;102242.81;4993849;28;97177;-51
2023/04/05 02:42:17;;;;;;;4.00;2.30;;;;;;;1.66;49.13;102236.25;4994673;28;97804;-51
2023/04/05 02:44:42;;;;;;;4.57;1.73;;;;;;;1.69;49.45;102235.44;4994198;28;97478;-50
2023/04/05 02:47:07;;;;;;;2.53;2.10;;;;;;;1.67;49.26;102238.56;4994337;28;97286;-52
2023/04/05 02:49:33;;;;;;;1.60;1.50;;;;;;;1.67;49.38;102237.78;4995986;28;97142;-49
2023/04/05 02:51:58;;;;;;;2.00;1.53;;;;;;;1.67;49.35;102229.63;4991820;28;101671;-49
2023/04/05 02:54:23;;;;;;;1.43;1.33;;;;;;;1.66;49.52;102236.25;4994919;28;97016;-49
2023/04/05 02:56:49;;;;;;;1.20;1.10;;;;;;;1.64;49.52;102231.19;4993264;28;111902;-50
2023/04/05 02:59:15;;;;;;;0.90;0.90;;;;;;;1.61;49.33;102229.28;4996839;28;97996;-52
2023/04/05 03:01:43;;;;;;;1.40;1.30;;;;;;;1.57;49.30;102231.22;4996254;28;97235;-50
2023/04/05 03:04:11;;;;;;;1.30;1.10;;;;;;;1.53;49.16;102231.22;4994683;28;97030;-51
2023/04/05 03:06:37;;;;;;;1.60;1.37;;;;;;;1.52;49.56;102226.97;4995081;28;98028;-49
2023/04/05 03:09:03;;;;;;;1.83;1.40;;;;;;;1.52;49.20;102229.69;4992923;28;97184;-52
2023/04/05 03:11:29;;;;;;;1.90;1.77;;;;;;;1.46;48.94;102225.06;4996840;28;96864;-52
2023/04/05 03:13:54;;;;;;;2.10;1.90;;;;;;;1.38;49.28;102226.22;4996232;28;97119;-49
2023/04/05 03:16:20;;;;;;;2.33;1.67;;;;;;;1.30;49.42;102222.75;4992963;28;97625;-51
2023/04/05 03:18:45;;;;;;;1.67;1.57;;;;;;;1.29;49.60;102220.44;4990288;28;97124;-51
2023/04/05 03:21:11;;;;;;;2.83;1.47;;;;;;;1.27;49.32;102218.13;4995880;28;96751;-49
2023/04/05 03:23:36;;;;;;;2.20;1.80;;;;;;;1.25;49.65;102220.44;4993916;28;97351;-49
2023/04/05 03:26:02;;;;;;;1.53;1.37;;;;;;;1.25;49.31;102222.38;4992330;28;99176;-51
2023/04/05 03:28:31;;;;;;;1.10;1.00;;;;;;;1.20;49.80;102220.06;4994206;28;97691;-51
2023/04/05 03:30:57;;;;;;;1.13;1.03;;;;;;;1.19;49.60;102219.28;4994010;28;96943;-50
2023/04/05 03:33:23;;;;;;;1.67;1.57;;;;;;;1.19;49.72;102215.81;4991006;28;96885;-49
2023/04/05 03:35:48;;;;;;;1.30;1.10;;;;;;;1.18;49.92;102214.28;4990923;28;97713;-48
2023/04/05 03:38:14;;;;;;;1.43;0.93;;;;;;;1.16;49.85;102213.84;4993691;28;97239;-49
2023/04/05 03:40:39;;;;;;;1.90;0.83;;;;;;;1.15;49.84;102213.09;4993755;28;97393;-50
2023/04/05 03:43:05;;;;;;;1.10;1.00;;;;;;;1.15;49.86;102209.63;4997841;28;97299;-50
2023/04/05 03:45:30;;;;;;;1.57;1.47;;;;;;;1.14;49.77;102208.06;4994464;28;100467;-52
2023/04/05 03:47:57;;;;;;;0.80;0.80;;;;;;;1.11;49.97;102211.56;4992465;28;103021;-49
2023/04/05 03:50:23;;;;;;;2.10;1.37;;;;;;;1.10;49.75;102210.78;4987661;28;98524;-52
2023/04/05 03:52:48;;;;;;;1.20;1.10;;;;;;;1.09;49.68;102213.88;4993569;28;96686;-50
2023/04/05 03:55:15;;;;;;;0.93;0.93;;;;;;;1.05;49.77;102211.16;4993664;28;97297;-50
2023/04/05 03:57:41;;;;;;;1.20;1.10;;;;;;;1.04;49.81;102211.56;4992925;28;97255;-52
2023/04/05 04:00:13;;;;;;;1.93;1.00;;;;;;;0.99;49.71;102218.16;4991719;28;97180;-50
2023/04/05 04:02:49;;;;;;;1.20;1.00;;;;;;;0.92;50.36;102212.72;4994200;28;103118;-51
2023/04/05 04:05:16;;;;;;;1.53;1.00;;;;;;;0.89;49.83;102218.94;4994043;28;97449;-50
2023/04/05 04:07:42;;;;;;;1.40;1.30;;;;;;;0.87;50.10;102207.72;4991165;28;97672;-50
2023/04/05 04:10:09;;;;;;;1.93;1.10;;;;;;;0.89;49.93;102218.94;4991486;28;97239;-51
2023/04/05 04:12:35;;;;;;;0.60;0.60;;;;;;;0.89;49.95;102210.81;4991898;28;96900;-49
2023/04/05 04:15:00;;;;;;;1.00;0.80;;;;;;;0.87;49.75;102217.78;4992144;28;97526;-50
2023/04/05 04:17:31;;;;;;;3.10;0.90;;;;;;;0.81;50.21;102213.91;4992795;28;97125;-50
2023/04/05 04:19:57;;;;;;;1.17;0.93;;;;;;;0.79;50.38;102214.28;4990851;28;99958;-48
2023/04/05 04:22:25;;;;;;;1.00;0.87;;;;;;;0.81;50.13;102216.63;4994123;28;97376;-48
2023/04/05 04:24:52;;;;;;;1.03;1.03;;;;;;;0.79;50.46;102222.41;4993143;28;96794;-48
2023/04/05 04:27:19;;;;;;;1.07;0.97;;;;;;;0.78;50.38;102220.88;4991925;28;97552;-51
2023/04/05 04:29:48;;;;;;;1.37;1.27;;;;;;;0.75;50.18;102219.69;4992292;28;97052;-50
2023/04/05 04:32:14;;;;;;;1.47;0.97;;;;;;;0.75;49.97;102221.63;4992945;28;97033;-49
2023/04/05 04:34:46;;;;;;;1.27;1.17;;;;;;;0.72;50.11;102227.84;4992255;28;97997;-49
2023/04/05 04:37:17;;;;;;;1.20;1.10;;;;;;;0.73;50.55;102221.25;4994983;28;100237;-49
2023/04/05 04:39:46;;;;;;;1.40;1.27;;;;;;;0.67;50.25;102222.78;4994677;28;97301;-50
2023/04/05 04:42:12;;;;;;;1.50;1.40;;;;;;;0.64;50.41;102231.69;4988769;28;97150;-49
2023/04/05 04:44:38;;;;;;;3.20;1.20;;;;;;;0.63;50.75;102225.47;4991579;28;97122;-49
2023/04/05 04:47:06;;;;;;;2.70;1.40;;;;;;;0.51;50.59;102216.97;4991416;28;97205;-52
2023/04/05 04:49:31;;;;;;;1.43;1.33;;;;;;;0.45;50.52;102227.41;4994670;28;97347;-51
2023/04/05 04:51:58;;;;;;;0.90;0.90;;;;;;;0.48;50.73;102221.19;4996592;28;96973;-48
2023/04/05 04:54:23;;;;;;;1.00;0.90;;;;;;;0.51;50.95;102231.28;4996816;28;97329;-50
2023/04/05 04:56:49;;;;;;;2.30;0.90;;;;;;;0.53;50.50;102220.84;4997692;28;97349;-49
2023/04/05 04:59:14;;;;;;;2.60;1.30;;;;;;;0.53;50.52;102226.25;4996282;28;97166;-50
2023/04/05 05:01:40;;;;;;;1.30;1.23;;;;;;;0.56;50.79;102224.72;4995576;28;98036;-48
2023/04/05 05:04:05;;;;;;;3.70;1.50;;;;;;;0.53;50.74;102225.47;4993392;28;97264;-51
2023/04/05 05:06:30;;;;;;;5.00;2.90;;;;;;;0.53;50.87;102226.25;4997917;28;97202;-48
2023/04/05 05:08:56;;;;;;;7.03;4.23;;;;;;;0.55;50.76;102223.94;4997421;28;97313;-51
2023/04/05 05:11:21;;;;;;;5.97;3.90;;;;;;;0.58;50.43;102228.59;4993743;28;96763;-51
2023/04/05 05:13:47;;;;;;;7.13;4.70;;;;;;;0.57;50.48;102229.72;4993547;28;99984;-50
2023/04/05 05:16:12;;;;;;;7.07;4.40;;;;;;;0.55;50.49;102233.97;4999063;28;97380;-49
2023/04/05 05:18:40;;;;;;;8.43;5.07;;;;;;;0.55;51.03;102236.69;4996954;28;97151;-52
2023/04/05 05:21:05;;;;;;;9.17;5.67;;;;;;;0.56;50.69;102232.84;4996720;28;97117;-49
2023/04/05 05:23:31;;;;;;;7.97;5.70;;;;;;;0.56;51.29;102228.19;4994506;28;97148;-49
2023/04/05 05:25:58;;;;;;;8.70;5.43;;;;;;;0.62;50.84;102231.28;4997463;28;97107;-48
2023/04/05 05:28:26;;;;;;;6.23;4.73;;;;;;;0.67;50.80;102239.03;4994039;28;97231;-50
2023/04/05 05:30:51;;;;;;;5.60;4.63;;;;;;;0.69;50.98;102221.25;4993037;28;96862;-52
2023/04/05 05:33:17;;;;;;;5.53;4.63;;;;;;;0.72;50.92;102219.72;4996808;28;97742;-50
2023/04/05 05:35:43;;;;;;;6.97;4.27;;;;;;;0.72;51.09;102217.75;4995198;28;96806;-48
2023/04/05 05:38:08;;;;;;;4.50;3.20;;;;;;;0.71;50.89;102221.63;4995423;28;97175;-50
2023/04/05 05:40:33;;;;;;;6.60;4.00;;;;;;;0.75;51.05;102216.22;4996779;28;96995;-48
2023/04/05 05:42:59;;;;;;;5.20;3.90;;;;;;;0.77;51.03;102213.88;4996778;28;97080;-49
2023/04/05 05:45:24;;;;;;;7.10;4.70;;;;;;;0.78;50.93;102220.88;4997990;28;98432;-50
2023/04/05 05:47:49;;;;;;;4.53;3.40;;;;;;;0.83;51.46;102212.34;4997200;28;96999;-50
2023/04/05 05:50:16;;;;;;;2.03;1.83;;;;;;;0.87;51.42;102206.94;4994874;28;97196;-51
2023/04/05 05:52:41;;;;;;;2.13;1.97;;;;;;;0.91;51.22;102215.81;4995147;28;97863;-46
2023/04/05 05:55:07;;;;;;;2.77;2.00;;;;;;;0.93;51.48;102210.78;4990869;28;97215;-48
2023/04/05 05:57:32;;;;;;;4.20;1.90;;;;;;;1.00;51.60;102218.94;4998014;28;97385;-50
2023/04/05 05:59:57;;;;;;;3.37;1.40;;;;;;;1.05;51.34;102210.41;4994920;28;96713;-49
2023/04/05 06:02:23;;;;;;;1.73;1.40;;;;;;;1.07;50.98;102214.25;4994753;28;97749;-48
2023/04/05 06:04:48;;;;;;;2.30;2.10;;;;;;;1.06;51.33;102212.72;4995888;28;97725;-49
2023/04/05 06:07:14;;;;;;;2.77;2.27;;;;;;;1.10;50.92;102213.50;4996063;28;97420;-50
2023/04/05 06:09:39;;;;;;;2.43;1.93;;;;;;;1.13;51.18;102215.44;4996939;28;97391;-49
2023/04/05 06:12:05;;;;;;;4.70;3.53;;;;;;;1.13;51.23;102210.00;4995339;28;97335;-49
2023/04/05 06:14:30;;;;;;;6.73;4.47;;;;;;;1.19;51.33;102218.50;4994603;28;97113;-49
2023/04/05 06:16:56;;;;;;;7.77;4.97;;;;;;;1.25;51.36;102219.66;4993671;28;97211;-48
2023/04/05 06:19:21;;;;;;;7.30;4.67;;;;;;;1.31;51.57;102231.69;4995364;28;97715;-48
2023/04/05 06:21:47;;;;;;;5.33;3.40;;;;;;;1.36;51.32;102215.00;4996132;28;97244;-49
2023/04/05 06:24:12;;;;;;;4.03;2.73;;;;;;;1.41;51.39;102214.59;4992217;28;98621;-50
2023/04/05 06:26:38;;;;;;;2.13;2.03;;;;;;;1.46;51.23;102211.50;4996289;28;97310;-52
2023/04/05 06:29:03;;;;;;;2.20;1.70;;;;;;;1.52;51.41;102218.84;4994533;28;97627;-50
2023/04/05 06:31:33;;;;;;;1.93;1.83;;;;;;;1.56;51.34;102213.41;4994755;28;98692;-51
2023/04/05 06:33:59;;;;;;;1.47;1.27;;;;;;;1.63;51.60;102220.75;4994002;28;97874;-52
2023/04/05 06:36:25;;;;;;;3.43;1.17;;;;;;;1.64;51.60;102216.88;4994814;28;97397;-48
2023/04/05 06:38:51;;;;;;;6.80;1.40;;;;;;;1.71;51.51;102223.03;4998351;28;97525;-51
2023/04/05 06:41:16;;;;;;;2.30;1.10;;;;;;;1.77;51.60;102218.00;4993754;28;97600;-51
2023/04/05 06:43:41;;;;;;;3.90;1.40;;;;;;;1.84;51.74;102215.22;4993874;28;97525;-48
2023/04/05 06:46:10;;;;;;;1.33;1.23;;;;;;;1.91;51.62;102229.56;4994859;28;97045;-50
2023/04/05 06:48:35;;;;;;;1.00;1.00;;;;;;;1.95;51.71;102213.25;4995513;28;97319;-49
2023/04/05 06:51:02;;;;;;;0.90;0.90;;;;;;;2.03;51.64;102217.50;4994083;28;97733;-50
2023/04/05 06:53:28;;;;;;;1.23;1.10;;;;;;;2.11;51.87;102208.91;4995595;28;97423;-48
2023/04/05 06:55:55;;;;;;;2.50;0.90;;;;;;;2.17;51.77;102206.56;4992454;28;97371;-49
2023/04/05 06:58:20;;;;;;;0.87;0.87;;;;;;;2.25;51.67;102211.53;4996715;28;97022;-49
2023/04/05 07:00:46;;;;;;;1.03;0.93;;;;;;;2.34;51.81;102213.81;4994109;28;97697;-51
2023/04/05 07:03:11;;;;;;;0.80;0.70;;;;;;;2.43;51.96;102202.50;4991559;28;97642;-51
2023/04/05 07:05:36;;;;;;;0.83;0.80;;;;;;;2.53;52.03;102210.59;4992707;28;97063;-50
2023/04/05 07:08:02;;;;;;;1.00;0.90;;;;;;;2.61;52.09;102205.88;4995553;28;97224;-49
2023/04/05 07:10:27;;;;;;;1.37;0.90;;;;;;;2.69;51.96;102210.88;4997159;28;97555;-50
2023/04/05 07:12:53;;;;;;;2.30;1.37;;;;;;;2.77;51.76;102209.66;4996169;28;96941;-49
2023/04/05 07:15:18;;;;;;;1.30;1.17;;;;;;;2.90;52.34;102199.84;4995991;28;97499;-49
2023/04/05 07:17:43;;;;;;;3.37;1.33;;;;;;;3.01;52.15;102203.22;4994340;28;97265;-51
2023/04/05 07:20:10;;;;;;;1.77;1.00;;;;;;;3.12;52.03;102202.38;4994738;28;98219;-50
2023/04/05 07:22:35;;;;;;;1.87;1.53;;;;;;;3.26;52.24;102202.19;4995121;28;97272;-50
2023/04/05 07:25:01;;;;;;;1.70;1.60;;;;;;;3.41;51.95;102198.16;4994705;28;97085;-50
2023/04/05 07:27:29;;;;;;;1.70;1.20;;;;;;;3.58;52.04;102199.94;4994787;28;97406;-49
2023/04/05 07:29:54;;;;;;;1.93;1.40;;;;;;;3.77;52.20;102205.53;4992865;28;97309;-51
2023/04/05 07:32:20;;;;;;;5.23;1.70;;;;;;;3.93;51.74;102202.25;4996786;28;97285;-48
2023/04/05 07:34:46;;;;;;;2.33;1.53;;;;;;;4.08;51.64;102200.88;4995743;28;97721;-50
2023/04/05 07:37:12;;;;;;;4.83;1.37;;;;;;;4.21;51.61;102201.88;4993130;28;97676;-48
2023/04/05 07:39:38;;;;;;;2.47;1.47;;;;;;;4.35;51.63;102219.94;4994014;28;98776;-51
2023/04/05 07:42:03;;;;;;;2.17;1.47;;;;;;;4.47;51.53;102206.53;4994168;28;97217;-50
2023/04/05 07:44:29;;;;;;;1.40;1.30;;;;;;;4.57;51.56;102199.38;4994483;28;97233;-50
2023/04/05 07:46:54;;;;;;;1.53;1.37;;;;;;;4.69;51.25;102195.31;5000258;28;96859;-51
2023/04/05 07:49:26;;;;;;;1.93;1.43;;;;;;;4.83;51.23;102195.84;4993020;28;97511;-50
2023/04/05 07:51:57;;;;;;;2.57;1.40;;;;;;;4.98;51.26;102191.69;4992782;28;97649;-51
2023/04/05 07:54:23;;;;;;;4.50;1.40;;;;;;;5.14;50.74;102193.75;4991593;28;97167;-50
2023/04/05 07:56:49;;;;;;;1.63;1.10;;;;;;;5.31;50.92;102206.28;4992067;28;97231;-48
2023/04/05 07:59:14;;;;;;;2.67;1.30;;;;;;;5.43;50.52;102192.03;4990740;28;97601;-51
2023/04/05 08:01:39;;;;;;;2.43;1.60;;;;;;;5.61;50.68;102194.44;4993910;28;98080;-51
2023/04/05 08:04:05;;;;;;;1.90;1.50;;;;;;;5.77;50.43;102191.75;4990018;28;99473;-50
2023/04/05 08:06:30;;;;;;;1.40;1.30;;;;;;;5.90;50.15;102192.69;4991975;28;98826;-49
2023/04/05 08:08:56;;;;;;;1.20;1.03;;;;;;;6.07;49.70;102197.03;4992939;28;97059;-51
2023/04/05 08:11:21;;;;;;;4.40;1.57;;;;;;;6.25;50.02;102191.13;4993829;28;97056;-50
2023/04/05 08:13:46;;;;;;;4.00;1.67;;;;;;;6.41;49.88;102191.16;4996960;28;96952;-52
2023/04/05 08:16:12;;;;;;;0.90;0.90;;;;;;;6.59;49.63;102191.53;4995225;28;97125;-49
2023/04/05 08:18:37;;;;;;;1.70;1.53;;;;;;;6.73;49.32;102191.19;4995339;28;97280;-53
2023/04/05 08:21:03;;;;;;;2.80;1.87;;;;;;;6.91;49.22;102191.50;4992262;28;98249;-51
2023/04/05 08:23:29;;;;;;;1.37;1.20;;;;;;;7.06;48.96;102195.44;4997456;28;96954;-51
2023/04/05 08:25:54;;;;;;;1.93;1.30;;;;;;;7.22;49.08;102184.47;5000564;28;98730;-51
2023/04/05 08:28:21;;;;;;;1.73;1.50;;;;;;;7.41;48.94;102185.50;4997539;28;97005;-49
2023/04/05 08:30:46;;;;;;;1.83;1.67;;;;;;;7.62;48.98;102184.94;4995130;28;96818;-49
2023/04/05 08:33:12;;;;;;;4.50;1.50;;;;;;;7.83;48.33;102186.28;4998660;28;97410;-49
2023/04/05 08:35:38;;;;;;;1.60;1.50;;;;;;;7.97;47.55;102183.13;5001769;28;97196;-56
2023/04/05 08:38:05;;;;;;;2.33;1.40;;;;;;;8.14;47.14;102187.31;4994369;28;97124;-51
2023/04/05 08:40:42;;;;;;;1.40;0.73;;;;;;;8.32;45.81;102182.84;4992052;28;97208;-49
2023/04/05 08:43:32;;;;;;;1.53;0.97;;;;;;;8.54;46.58;102185.69;4996349;28;96716;-53
2023/04/05 08:46:00;;;;;;;1.63;1.00;;;;;;;8.87;46.52;102186.94;4996389;28;96667;-53
2023/04/05 08:48:29;;;;;;;2.80;0.63;;;;;;;9.19;46.09;102196.09;4996798;28;97461;-49
2023/04/05 08:50:55;;;;;;;1.47;1.20;;;;;;;9.25;44.52;102172.34;4999802;28;97153;-57
2023/04/05 08:53:21;;;;;;;3.10;1.27;;;;;;;9.40;45.60;102174.13;4996220;28;101134;-53
2023/04/05 08:55:50;;;;;;;1.23;0.87;;;;;;;9.67;45.19;102177.09;4996913;28;97098;-53
2023/04/05 08:58:17;;;;;;;1.23;1.10;;;;;;;9.99;45.42;102180.59;4993820;28;97116;-50
2023/04/05 09:00:43;;;;;;;1.50;1.40;;;;;;;10.14;44.66;102174.13;4999408;28;98405;-52
2023/04/05 09:03:16;;;;;;;2.50;1.53;;;;;;;10.37;44.37;102176.38;4996053;28;96751;-51
2023/04/05 09:05:45;;;;;;;2.30;1.70;;;;;;;10.64;44.62;102172.19;4996254;28;97218;-52
2023/04/05 09:08:12;;;;;;;1.00;0.90;;;;;;;10.89;44.72;102172.66;4994838;28;97061;-50
2023/04/05 09:10:38;;;;;;;2.30;1.80;;;;;;;11.13;44.67;102173.59;4992862;28;97354;-52
2023/04/05 09:13:04;;;;;;;4.37;1.50;;;;;;;11.34;44.43;102180.16;4995701;28;97006;-47
2023/04/05 09:15:29;;;;;;;1.23;1.13;;;;;;;11.51;43.83;102169.59;4995658;28;97209;-52
2023/04/05 09:17:55;;;;;;;1.77;1.40;;;;;;;11.56;43.58;102169.75;4998862;28;97494;-49
2023/04/05 09:20:20;;;;;;;1.30;1.20;;;;;;;11.72;43.70;102166.69;4995087;28;97082;-49
2023/04/05 09:22:46;;;;;;;1.40;1.30;;;;;;;11.89;43.48;102156.81;4994635;28;96784;-48
2023/04/05 09:25:30;;;;;;;3.80;1.30;;;;;;;11.96;37.24;102164.00;4997553;28;96815;-50
2023/04/05 09:27:56;;;;;;;3.60;1.80;;;;;;;11.97;43.04;102163.53;4996883;28;97395;-53
2023/04/05 09:30:22;;;;;;;1.77;0.97;;;;;;;12.18;42.51;102161.00;4995006;28;101330;-49
2023/04/05 09:32:50;;;;;;;3.30;1.13;;;;;;;12.27;42.25;102163.72;4993424;28;96736;-52
2023/04/05 09:35:20;;;;;;;1.43;1.10;;;;;;;12.32;41.04;102158.31;4993946;28;96953;-51
2023/04/05 09:38:02;;;;;;;3.03;1.73;;;;;;;12.42;40.28;102159.06;4995319;28;97087;-51
2023/04/05 09:40:43;;;;;;;1.00;0.83;;;;;;;12.53;39.87;102157.31;4996680;28;97103;-50
2023/04/05 09:43:11;;;;;;;0.90;0.80;;;;;;;12.61;41.77;102157.72;4993962;28;97793;-50
2023/04/05 09:45:44;;;;;;;1.27;0.80;;;;;;;12.76;40.69;102164.06;4996175;28;97393;-51
2023/04/05 09:48:09;;;;;;;2.07;1.00;;;;;;;12.94;41.69;102161.19;4996039;28;97308;-51
2023/04/05 09:50:35;;;;;;;0.80;0.80;;;;;;;12.89;40.91;102156.28;4995546;28;96962;-52
2023/04/05 09:53:17;;;;;;;1.47;0.93;;;;;;;12.92;39.41;102146.31;4994867;28;97011;-50
2023/04/05 09:55:43;;;;;;;1.77;0.80;;;;;;;12.86;40.94;102157.25;4996278;28;97120;-53
2023/04/05 09:58:12;;;;;;;0.80;0.80;;;;;;;12.91;40.61;102153.81;4995835;28;97463;-49
2023/04/05 10:00:51;;;;;;;1.93;0.93;;;;;;;12.93;40.83;102150.59;4995275;28;97275;-51
2023/04/05 10:03:17;;;;;;;3.83;1.10;;;;;;;12.93;41.13;102148.59;4995029;28;97532;-50
2023/04/05 10:05:43;;;;;;;1.10;1.00;;;;;;;13.02;40.87;102150.53;4996020;28;97207;-51
2023/04/05 10:08:08;;;;;;;0.93;0.80;;;;;;;12.96;40.44;102138.59;4993007;28;107801;-51
2023/04/05 10:10:45;;;;;;;1.43;1.13;;;;;;;12.75;40.02;102134.94;4994850;28;107319;-53
2023/04/05 10:13:10;;;;;;;0.90;0.80;;;;;;;12.78;40.71;102128.44;4994703;28;96919;-53
2023/04/05 10:15:36;;;;;;;1.00;0.90;;;;;;;12.86;40.26;102134.38;4995275;28;96899;-52
2023/04/05 10:18:09;;;;;;;1.53;1.10;;;;;;;12.96;40.51;102127.53;4994635;28;97012;-49
2023/04/05 10:20:38;;;;;;;1.07;1.00;;;;;;;13.01;39.90;102126.91;4995673;28;97237;-55
2023/04/05 10:23:09;;;;;;;0.80;0.80;;;;;;;13.08;40.46;102123.81;4994872;28;97303;-53
2023/04/05 10:25:52;;;;;;;1.20;0.80;;;;;;;13.16;37.56;102125.72;4996701;28;96788;-52
2023/04/05 10:28:30;;;;;;;1.00;0.80;;;;;;;13.20;38.49;102126.28;4997279;28;97124;-49
2023/04/05 10:31:09;;;;;;;0.60;0.60;;;;;;;13.22;38.82;102128.56;4993107;28;96987;-51
2023/04/05 10:33:40;;;;;;;1.43;0.90;;;;;;;13.24;39.39;102126.88;4997104;28;97031;-53
2023/04/05 10:36:39;;;;;;;2.20;0.97;;;;;;;13.28;37.40;102121.91;4993629;28;96542;-49
2023/04/05 10:39:17;;;;;;;0.60;0.60;;;;;;;13.33;38.23;102112.19;4995134;28;97406;-53
2023/04/05 10:41:47;;;;;;;1.00;0.90;;;;;;;13.42;38.82;102112.09;4993559;28;97090;-50
2023/04/05 10:44:14;;;;;;;0.90;0.90;;;;;;;13.60;38.93;102108.38;4993730;28;97210;-51
2023/04/05 10:46:40;;;;;;;0.90;0.90;;;;;;;13.72;39.30;102108.09;4995555;28;96804;-53
2023/04/05 10:49:15;;;;;;;0.90;0.70;;;;;;;13.98;38.09;102103.47;4990595;28;97268;-50
2023/04/05 10:51:42;;;;;;;1.00;0.90;;;;;;;14.17;38.75;102096.47;4993781;28;97221;-52
2023/04/05 10:54:09;;;;;;;1.27;1.10;;;;;;;14.26;38.58;102095.56;4993606;28;96916;-51
2023/04/05 10:56:36;;;;;;;4.53;1.10;;;;;;;14.44;37.98;102094.59;4993495;28;97161;-52
2023/04/05 10:59:02;;;;;;;0.70;0.70;;;;;;;14.36;37.99;102091.44;4992021;28;97480;-56
2023/04/05 11:01:29;;;;;;;0.93;0.90;;;;;;;14.08;37.75;102087.50;4995832;28;96996;-52
2023/04/05 11:03:55;;;;;;;1.30;0.80;;;;;;;13.83;38.13;102088.91;4994084;28;99878;-51
2023/04/05 11:06:31;;;;;;;2.13;1.03;;;;;;;13.65;36.71;102093.91;4995950;28;97398;-51
2023/04/05 11:09:14;;;;;;;1.07;0.77;;;;;;;13.53;35.79;102087.41;4997330;28;97184;-54
2023/04/05 11:11:45;;;;;;;1.40;1.00;;;;;;;13.28;37.92;102085.25;4994737;28;97701;-51
2023/04/05 11:14:18;;;;;;;0.80;0.80;;;;;;;13.19;37.58;102080.53;4995452;28;97360;-54
2023/04/05 11:16:46;;;;;;;1.53;1.00;;;;;;;13.13;38.53;102084.44;4992649;28;97184;-50
2023/04/05 11:19:12;;;;;;;0.80;0.80;;;;;;;13.06;38.53;102082.81;4991926;28;97862;-50
2023/04/05 11:21:37;;;;;;;0.70;0.70;;;;;;;12.94;38.30;102075.53;4991363;28;97626;-52
2023/04/05 11:24:07;;;;;;;3.80;1.20;;;;;;;12.92;38.50;102082.75;4992402;28;96984;-52
2023/04/05 11:26:51;;;;;;;1.23;0.70;;;;;;;12.96;38.31;102080.56;4997017;28;97464;-51
2023/04/05 11:29:17;;;;;;;1.67;0.90;;;;;;;13.01;37.81;102079.94;4996999;28;97028;-52
2023/04/05 11:31:59;;;;;;;1.33;0.70;;;;;;;12.82;33.23;102074.56;4995088;28;97372;-51
2023/04/05 11:34:25;;;;;;;1.30;1.03;;;;;;;12.55;37.22;102072.03;4993170;28;97060;-51